createdAt,value
2019-02-17T00:01:24.601Z,2.87
2019-02-17T00:03:54.411Z,3.30
2019-02-17T00:06:24.293Z,3.40
2019-02-17T00:08:54.229Z,3.08
2019-02-17T00:11:23.770Z,2.60
2019-02-17T00:13:53.855Z,2.90
2019-02-17T00:16:24.243Z,2.90
2019-02-17T00:18:53.806Z,3.22
2019-02-17T00:21:23.832Z,2.80
2019-02-17T00:23:53.781Z,3.02
2019-02-17T00:26:24.101Z,3.20
2019-02-17T00:28:59.348Z,2.90
2019-02-17T00:31:25.093Z,3.37
2019-02-17T00:33:55.795Z,3.02
2019-02-17T00:36:25.335Z,3.15
2019-02-17T00:38:57.475Z,3.22
2019-02-17T00:41:28.687Z,3.00
2019-02-17T00:43:58.978Z,3.20
2019-02-17T00:46:28.787Z,2.80
2019-02-17T00:48:58.050Z,2.70
2019-02-17T00:51:27.737Z,2.80
2019-02-17T00:53:57.476Z,2.92
2019-02-17T00:56:26.502Z,3.05
2019-02-17T00:58:55.915Z,2.87
2019-02-17T01:01:25.808Z,2.75
2019-02-17T01:03:54.810Z,3.08
2019-02-17T01:06:24.370Z,2.65
2019-02-17T01:11:56.517Z,2.50
2019-02-17T01:14:25.668Z,2.85
2019-02-17T01:16:54.642Z,3.17
2019-02-17T01:19:23.548Z,2.90
2019-02-17T01:21:52.527Z,2.98
2019-02-17T01:24:21.479Z,2.30
2019-02-17T01:26:50.558Z,2.92
2019-02-17T01:29:20.823Z,2.65
2019-02-17T01:31:49.947Z,2.75
2019-02-17T01:34:18.839Z,2.67
2019-02-17T01:36:48.181Z,3.00
2019-02-17T01:39:17.184Z,3.00
2019-02-17T01:41:46.131Z,2.65
2019-02-17T01:44:15.008Z,2.62
2019-02-17T01:46:43.883Z,3.00
2019-02-17T01:49:12.789Z,2.40
2019-02-17T01:51:41.656Z,2.90
2019-02-17T01:54:10.589Z,2.70
2019-02-17T01:56:39.464Z,2.50
2019-02-17T01:59:08.387Z,2.50
2019-02-17T02:01:37.227Z,2.10
2019-02-17T02:04:06.188Z,2.42
2019-02-17T02:06:35.013Z,2.58
2019-02-17T02:09:05.362Z,2.40
2019-02-17T02:11:34.255Z,2.30
2019-02-17T02:14:03.108Z,2.55
2019-02-17T02:16:32.172Z,2.65
2019-02-17T02:19:01.013Z,2.22
2019-02-17T02:21:29.943Z,2.10
2019-02-17T02:23:58.833Z,2.70
2019-02-17T02:26:27.731Z,2.10
2019-02-17T02:28:56.612Z,2.40
2019-02-17T02:31:25.532Z,2.02
2019-02-17T02:33:54.397Z,2.40
2019-02-17T02:36:23.320Z,2.27
2019-02-17T02:38:52.182Z,2.05
2019-02-17T02:41:21.081Z,1.70
2019-02-17T02:43:49.963Z,1.95
2019-02-17T02:46:19.198Z,2.20
2019-02-17T02:48:48.087Z,1.87
2019-02-17T02:51:16.959Z,2.08
2019-02-17T02:53:45.859Z,2.05
2019-02-17T02:56:14.712Z,2.25
2019-02-17T02:58:43.606Z,2.00
2019-02-17T03:01:13.369Z,1.85
2019-02-17T03:03:42.308Z,1.60
2019-02-17T03:06:12.924Z,1.50
2019-02-17T03:08:41.820Z,1.65
2019-02-17T03:11:10.720Z,1.80
2019-02-17T03:13:39.666Z,1.90
2019-02-17T03:16:08.529Z,2.00
2019-02-17T03:18:37.442Z,1.72
2019-02-17T03:21:06.299Z,2.33
2019-02-17T03:23:35.229Z,1.70
2019-02-17T03:26:04.127Z,1.80
2019-02-17T03:28:32.985Z,1.72
2019-02-17T03:31:01.950Z,1.62
2019-02-17T03:33:30.808Z,1.57
2019-02-17T03:35:59.823Z,1.70
2019-02-17T03:38:28.692Z,1.92
2019-02-17T03:40:57.609Z,1.90
2019-02-17T03:43:26.501Z,2.30
2019-02-17T03:45:55.400Z,2.05
2019-02-17T03:48:24.267Z,1.50
2019-02-17T03:50:53.183Z,1.82
2019-02-17T03:53:22.058Z,1.75
2019-02-17T03:55:50.931Z,1.67
2019-02-17T03:58:19.879Z,1.90
2019-02-17T04:00:48.753Z,2.08
2019-02-17T04:03:17.665Z,1.80
2019-02-17T04:05:46.552Z,1.85
2019-02-17T04:08:15.508Z,1.67
2019-02-17T04:10:44.419Z,1.50
2019-02-17T04:13:13.347Z,1.95
2019-02-17T04:15:42.219Z,1.75
2019-02-17T04:18:11.110Z,1.40
2019-02-17T04:20:39.989Z,1.70
2019-02-17T04:23:08.899Z,1.50
2019-02-17T04:25:37.773Z,1.70
2019-02-17T04:28:06.690Z,1.55
2019-02-17T04:30:35.196Z,1.72
2019-02-17T04:33:03.857Z,1.70
2019-02-17T04:35:32.445Z,1.75
2019-02-17T04:38:00.929Z,2.22
2019-02-17T04:40:29.529Z,2.00
2019-02-17T04:42:58.004Z,1.87
2019-02-17T04:45:26.483Z,1.65
2019-02-17T04:47:54.989Z,1.65
2019-02-17T04:50:23.542Z,2.00
2019-02-17T04:52:52.104Z,1.90
2019-02-17T04:55:20.747Z,1.98
2019-02-17T04:57:49.471Z,1.55
2019-02-17T05:00:18.018Z,1.90
2019-02-17T05:02:46.616Z,2.25
2019-02-17T05:05:16.732Z,1.92
2019-02-17T05:07:45.394Z,1.87
2019-02-17T05:10:13.920Z,2.17
2019-02-17T05:12:49.425Z,1.35
2019-02-17T05:15:17.985Z,1.70
2019-02-17T05:17:46.768Z,1.95
2019-02-17T05:20:15.665Z,1.60
2019-02-17T05:22:44.287Z,1.55
2019-02-17T05:25:12.873Z,1.62
2019-02-17T05:27:41.393Z,1.80
2019-02-17T05:30:11.389Z,1.60
2019-02-17T05:32:40.048Z,1.57
2019-02-17T05:35:08.729Z,1.60
2019-02-17T05:37:37.318Z,1.98
2019-02-17T05:40:06.534Z,1.70
2019-02-17T05:42:35.115Z,1.60
2019-02-17T05:45:04.773Z,1.60
2019-02-17T05:47:33.291Z,1.57
2019-02-17T05:50:04.269Z,1.52
2019-02-17T05:52:33.034Z,1.40
2019-02-17T05:55:08.261Z,1.60
2019-02-17T05:57:39.322Z,1.50
2019-02-17T06:00:10.692Z,1.35
2019-02-17T06:02:39.163Z,1.70
2019-02-17T06:05:12.823Z,1.60
2019-02-17T06:07:41.323Z,1.65
2019-02-17T06:10:10.449Z,1.85
2019-02-17T06:18:03.588Z,1.70
2019-02-17T06:20:32.686Z,1.77
2019-02-17T06:25:37.902Z,2.15
2019-02-17T06:28:07.171Z,1.77
2019-02-17T06:30:53.264Z,1.72
2019-02-17T06:33:37.735Z,1.90
2019-02-17T06:39:02.747Z,1.35
2019-02-17T06:41:34.096Z,1.25
2019-02-17T06:44:06.046Z,1.40
2019-02-17T06:46:36.443Z,1.27
2019-02-17T06:49:05.155Z,1.30
2019-02-17T06:51:33.698Z,1.60
2019-02-17T06:54:02.340Z,1.55
2019-02-17T06:56:32.617Z,1.55
2019-02-17T06:59:01.189Z,1.50
2019-02-17T07:01:29.840Z,1.50
2019-02-17T07:03:58.376Z,1.50
2019-02-17T07:06:28.594Z,1.30
2019-02-17T07:08:57.132Z,1.52
2019-02-17T07:11:25.705Z,1.20
2019-02-17T07:13:54.288Z,1.72
2019-02-17T07:16:23.331Z,1.50
2019-02-17T07:18:51.882Z,1.77
2019-02-17T07:21:20.460Z,1.50
2019-02-17T07:23:49.086Z,1.65
2019-02-17T07:26:17.630Z,1.85
2019-02-17T07:28:46.230Z,1.57
2019-02-17T07:31:14.817Z,1.95
2019-02-17T07:33:43.370Z,2.00
2019-02-17T07:36:11.943Z,2.12
2019-02-17T07:38:40.484Z,2.30
2019-02-17T07:41:09.067Z,2.30
2019-02-17T07:43:37.561Z,1.80
2019-02-17T07:46:06.142Z,2.15
2019-02-17T07:48:34.694Z,2.20
2019-02-17T07:51:03.214Z,2.30
2019-02-17T07:53:31.827Z,2.30
2019-02-17T07:56:00.415Z,2.22
2019-02-17T07:58:28.954Z,2.10
2019-02-17T08:00:57.457Z,2.00
2019-02-17T08:03:26.017Z,2.05
2019-02-17T08:05:54.486Z,1.65
2019-02-17T08:08:23.023Z,2.08
2019-02-17T08:10:51.491Z,2.10
2019-02-17T08:13:20.003Z,2.00
2019-02-17T08:15:48.511Z,1.70
2019-02-17T08:18:17.075Z,2.05
2019-02-17T08:20:45.561Z,2.07
2019-02-17T08:23:15.095Z,2.17
2019-02-17T08:25:43.569Z,2.87
2019-02-17T08:28:12.146Z,2.10
2019-02-17T08:30:40.716Z,2.80
2019-02-17T08:33:09.269Z,2.77
2019-02-17T08:35:37.803Z,3.20
2019-02-17T08:38:06.469Z,2.40
2019-02-17T08:40:35.006Z,2.50
2019-02-17T08:43:03.544Z,2.80
2019-02-17T08:45:32.026Z,2.90
2019-02-17T08:48:00.611Z,2.70
2019-02-17T08:50:29.345Z,3.13
2019-02-17T08:52:57.945Z,2.80
2019-02-17T08:55:26.522Z,2.90
2019-02-17T08:57:55.055Z,3.17
2019-02-17T09:00:23.625Z,3.20
2019-02-17T09:02:52.199Z,3.00
2019-02-17T09:05:20.765Z,2.80
2019-02-17T09:07:49.393Z,3.20
2019-02-17T09:10:17.885Z,3.10
2019-02-17T09:12:46.379Z,3.57
2019-02-17T09:15:14.872Z,3.80
2019-02-17T09:17:43.361Z,3.67
2019-02-17T09:20:12.588Z,3.80
2019-02-17T09:22:41.046Z,5.10
2019-02-17T09:25:11.287Z,4.50
2019-02-17T09:27:39.949Z,4.87
2019-02-17T09:30:16.995Z,4.33
2019-02-17T09:32:45.631Z,4.20
2019-02-17T09:35:14.177Z,4.40
2019-02-17T09:37:42.666Z,4.97
2019-02-17T09:40:12.601Z,4.60
2019-02-17T09:42:41.087Z,4.13
2019-02-17T09:45:14.257Z,4.30
2019-02-17T09:47:42.819Z,4.27
2019-02-17T09:50:13.410Z,4.23
2019-02-17T09:52:41.924Z,3.93
2019-02-17T09:55:11.190Z,3.93
2019-02-17T09:57:39.852Z,3.30
2019-02-17T10:00:11.387Z,3.13
2019-02-17T10:02:40.034Z,2.97
2019-02-17T10:05:10.239Z,3.10
2019-02-17T10:07:38.831Z,3.47
2019-02-17T10:10:17.911Z,3.43
2019-02-17T10:12:46.446Z,3.00
2019-02-17T10:15:15.100Z,3.40
2019-02-17T10:17:43.639Z,3.50
2019-02-17T10:20:15.902Z,3.20
2019-02-17T10:22:44.510Z,3.33
2019-02-17T10:25:13.439Z,3.33
2019-02-17T10:27:41.985Z,3.70
2019-02-17T10:30:15.112Z,3.53
2019-02-17T10:32:43.591Z,3.30
2019-02-17T10:35:12.305Z,3.00
2019-02-17T10:37:40.769Z,3.23
2019-02-17T10:40:14.887Z,3.30
2019-02-17T10:42:43.364Z,3.10
2019-02-17T10:45:12.174Z,4.07
2019-02-17T10:47:40.683Z,2.80
2019-02-17T10:50:11.297Z,2.90
2019-02-17T10:52:39.881Z,3.30
2019-02-17T10:55:10.258Z,3.37
2019-02-17T10:57:39.414Z,3.17
2019-02-17T11:00:12.258Z,2.40
2019-02-17T11:02:47.218Z,2.60
2019-02-17T11:05:12.818Z,3.17
2019-02-17T11:07:41.388Z,3.07
2019-02-17T11:10:11.401Z,2.40
2019-02-17T11:12:40.122Z,2.80
2019-02-17T11:15:22.255Z,3.13
2019-02-17T11:17:50.708Z,2.73
2019-02-17T11:20:19.178Z,2.90
2019-02-17T11:22:47.689Z,3.27
2019-02-17T11:25:16.161Z,2.77
2019-02-17T11:27:44.685Z,2.87
2019-02-17T11:30:21.380Z,2.70
2019-02-17T11:32:57.622Z,2.60
2019-02-17T11:35:20.301Z,3.10
2019-02-17T11:37:48.902Z,2.53
2019-02-17T11:40:17.703Z,2.67
2019-02-17T11:42:46.278Z,2.70
2019-02-17T11:45:17.138Z,2.70
2019-02-17T11:47:45.730Z,2.67
2019-02-17T11:50:15.879Z,3.23
2019-02-17T11:52:44.504Z,3.30
2019-02-17T11:55:14.717Z,3.30
2019-02-17T11:57:43.245Z,3.57
2019-02-17T12:00:22.221Z,4.07
2019-02-17T12:02:50.751Z,3.00
2019-02-17T12:05:19.250Z,3.67
2019-02-17T12:07:47.720Z,3.30
2019-02-17T12:10:16.464Z,3.47
2019-02-17T12:12:45.015Z,3.90
2019-02-17T12:15:14.407Z,3.67
2019-02-17T12:17:43.004Z,4.00
2019-02-17T12:20:42.797Z,3.80
2019-02-17T12:23:18.454Z,3.50
2019-02-17T12:26:03.365Z,4.23
2019-02-17T12:28:39.416Z,4.10
2019-02-17T12:31:07.989Z,4.50
2019-02-17T12:33:36.488Z,4.17
2019-02-17T12:36:05.118Z,4.30
2019-02-17T12:38:33.650Z,4.50
2019-02-17T12:41:02.117Z,4.60
2019-02-17T12:43:30.616Z,4.87
2019-02-17T12:45:59.194Z,4.50
2019-02-17T12:48:27.767Z,4.10
2019-02-17T12:50:56.270Z,4.37
2019-02-17T12:53:24.742Z,5.67
2019-02-17T12:55:53.322Z,4.47
2019-02-17T12:58:29.675Z,4.70
2019-02-17T13:00:52.085Z,4.20
2019-02-17T13:03:28.244Z,5.20
2019-02-17T13:05:50.859Z,5.10
2019-02-17T13:08:19.433Z,6.00
2019-02-17T13:10:47.946Z,4.80
2019-02-17T13:13:16.408Z,4.60
2019-02-17T13:15:44.955Z,5.20
2019-02-17T13:18:13.500Z,4.73
2019-02-17T13:20:41.966Z,4.83
2019-02-17T13:23:10.485Z,5.40
2019-02-17T13:25:38.990Z,5.37
2019-02-17T13:28:07.451Z,4.80
2019-02-17T13:30:35.961Z,5.00
2019-02-17T13:33:04.467Z,4.83
2019-02-17T13:35:32.993Z,4.80
2019-02-17T13:38:01.479Z,5.00
2019-02-17T13:40:29.953Z,4.90
2019-02-17T13:42:58.529Z,4.67
2019-02-17T13:45:27.006Z,4.73
2019-02-17T13:47:55.522Z,5.90
2019-02-17T13:50:24.083Z,4.57
2019-02-17T13:52:52.589Z,4.50
2019-02-17T13:55:21.127Z,4.60
2019-02-17T13:57:49.716Z,4.90
2019-02-17T14:00:19.527Z,4.50
2019-02-17T14:02:48.069Z,4.60
2019-02-17T14:05:16.641Z,4.57
2019-02-17T14:07:45.126Z,4.53
2019-02-17T14:10:14.368Z,4.30
2019-02-17T14:12:42.878Z,4.20
2019-02-17T14:15:18.513Z,4.17
2019-02-17T14:17:47.080Z,4.30
2019-02-17T14:20:15.605Z,4.30
2019-02-17T14:22:44.106Z,4.20
2019-02-17T14:25:12.736Z,4.20
2019-02-17T14:27:41.184Z,4.67
2019-02-17T14:30:13.797Z,4.40
2019-02-17T14:32:42.502Z,4.23
2019-02-17T14:35:11.070Z,4.53
2019-02-17T14:37:39.676Z,4.60
2019-02-17T14:40:12.832Z,4.40
2019-02-17T14:42:41.483Z,4.53
2019-02-17T14:45:12.003Z,4.10
2019-02-17T14:47:40.561Z,4.23
2019-02-17T14:50:09.469Z,4.60
2019-02-17T14:52:38.036Z,4.77
2019-02-17T14:55:08.228Z,3.80
2019-02-17T14:57:36.720Z,3.73
2019-02-17T15:00:17.538Z,4.00
2019-02-17T15:02:46.160Z,3.70
2019-02-17T15:05:14.778Z,3.63
2019-02-17T15:07:43.413Z,3.00
2019-02-17T15:10:13.265Z,3.73
2019-02-17T15:12:41.822Z,3.33
2019-02-17T15:15:11.925Z,3.30
2019-02-17T15:17:40.449Z,3.60
2019-02-17T15:20:12.147Z,3.50
2019-02-17T15:22:40.645Z,3.73
2019-02-17T15:25:11.210Z,3.53
2019-02-17T15:27:39.744Z,3.70
2019-02-17T15:30:13.588Z,3.80
2019-02-17T15:32:42.322Z,3.47
2019-02-17T15:35:10.920Z,2.87
2019-02-17T15:37:39.413Z,3.10
2019-02-17T15:40:10.785Z,3.07
2019-02-17T15:42:39.351Z,3.40
2019-02-17T15:45:10.350Z,2.97
2019-02-17T15:47:38.868Z,2.70
2019-02-17T15:50:11.864Z,2.67
2019-02-17T15:52:40.455Z,3.27
2019-02-17T15:55:13.676Z,3.27
2019-02-17T15:57:42.207Z,3.17
2019-02-17T16:00:13.147Z,2.57
2019-02-17T16:02:41.630Z,3.23
2019-02-17T16:05:10.583Z,4.63
2019-02-17T16:07:39.066Z,2.70
2019-02-17T16:10:13.551Z,2.70
2019-02-17T16:12:42.050Z,3.60
2019-02-17T16:15:16.674Z,3.60
2019-02-17T16:17:45.302Z,3.40
2019-02-17T16:20:14.569Z,2.80
2019-02-17T16:22:43.110Z,2.53
2019-02-17T16:25:11.928Z,2.43
2019-02-17T16:27:40.461Z,2.57
2019-02-17T16:30:12.135Z,2.20
2019-02-17T16:32:40.599Z,2.40
2019-02-17T16:35:09.045Z,2.30
2019-02-17T16:37:37.535Z,2.50
2019-02-17T16:40:09.060Z,2.40
2019-02-17T16:42:37.515Z,2.37
2019-02-17T16:45:09.408Z,2.10
2019-02-17T16:47:37.998Z,2.30
2019-02-17T16:50:09.730Z,2.80
2019-02-17T16:52:38.284Z,3.37
2019-02-17T16:55:09.083Z,2.50
2019-02-17T16:57:37.717Z,2.03
2019-02-17T17:00:13.765Z,2.00
2019-02-17T17:02:42.343Z,2.30
2019-02-17T17:05:11.526Z,1.90
2019-02-17T17:07:40.091Z,1.70
2019-02-17T17:10:08.874Z,1.80
2019-02-17T17:12:37.653Z,1.70
2019-02-17T17:15:07.449Z,1.67
2019-02-17T17:17:36.105Z,2.08
2019-02-17T17:20:07.782Z,2.10
2019-02-17T17:22:36.362Z,2.20
2019-02-17T17:25:08.004Z,2.42
2019-02-17T17:27:36.485Z,2.30
2019-02-17T17:30:07.860Z,2.30
2019-02-17T17:32:36.355Z,2.35
2019-02-17T17:35:06.674Z,3.02
2019-02-17T17:37:35.274Z,3.25
2019-02-17T17:40:04.645Z,2.83
2019-02-17T17:42:33.143Z,2.87
2019-02-17T17:45:01.661Z,2.90
2019-02-17T17:47:30.124Z,4.25
2019-02-17T17:49:58.618Z,2.60
2019-02-17T17:52:27.072Z,3.30
2019-02-17T17:54:55.593Z,3.85
2019-02-17T17:57:24.174Z,4.47
2019-02-17T17:59:52.717Z,3.55
2019-02-17T18:02:21.267Z,3.77
2019-02-17T18:04:49.860Z,3.72
2019-02-17T18:07:18.388Z,3.25
2019-02-17T18:09:46.940Z,4.15
2019-02-17T18:12:15.517Z,3.70
2019-02-17T18:14:44.045Z,4.45
2019-02-17T18:17:12.625Z,4.25
2019-02-17T18:19:41.137Z,4.87
2019-02-17T18:22:09.741Z,4.20
2019-02-17T18:24:38.277Z,4.30
2019-02-17T18:27:06.747Z,5.03
2019-02-17T18:29:35.311Z,4.50
2019-02-17T18:32:03.837Z,4.20
2019-02-17T18:34:32.308Z,4.47
2019-02-17T18:37:00.857Z,4.75
2019-02-17T18:39:29.357Z,4.45
2019-02-17T18:41:57.881Z,4.03
2019-02-17T18:44:26.441Z,4.40
2019-02-17T18:46:54.941Z,4.53
2019-02-17T18:49:23.478Z,4.30
2019-02-17T18:51:52.041Z,4.15
2019-02-17T18:54:20.543Z,3.92
2019-02-17T18:56:49.128Z,4.20
2019-02-17T18:59:17.656Z,4.25
2019-02-17T19:01:46.377Z,4.12
2019-02-17T19:04:15.231Z,4.15
2019-02-17T19:06:43.906Z,3.40
2019-02-17T19:09:12.931Z,3.92
2019-02-17T19:11:41.471Z,3.27
2019-02-17T19:14:10.120Z,3.87
2019-02-17T19:16:38.630Z,4.30
2019-02-17T19:19:07.138Z,4.20
2019-02-17T19:21:35.638Z,3.80
2019-02-17T19:24:04.292Z,3.95
2019-02-17T19:26:33.088Z,4.72
2019-02-17T19:29:01.671Z,3.75
2019-02-17T19:31:30.355Z,4.20
2019-02-17T19:33:59.111Z,4.00
2019-02-17T19:36:27.645Z,3.80
2019-02-17T19:38:56.112Z,3.80
2019-02-17T19:41:24.617Z,4.05
2019-02-17T19:43:53.168Z,3.72
2019-02-17T19:46:21.736Z,4.10
2019-02-17T19:48:50.239Z,4.10
2019-02-17T19:51:18.764Z,3.90
2019-02-17T19:53:47.332Z,3.30
2019-02-17T19:56:15.821Z,4.30
2019-02-17T19:58:44.341Z,4.00
2019-02-17T20:01:12.879Z,5.85
2019-02-17T20:03:57.709Z,4.40
2019-02-17T20:06:26.182Z,5.72
2019-02-17T20:08:54.675Z,3.95
2019-02-17T20:11:23.152Z,4.60
2019-02-17T20:13:51.727Z,4.90
2019-02-17T20:16:20.468Z,4.50
2019-02-17T20:18:49.038Z,4.15
2019-02-17T20:21:17.507Z,5.28
2019-02-17T20:23:46.091Z,4.47
2019-02-17T20:26:14.634Z,4.80
2019-02-17T20:28:43.828Z,5.00
2019-02-17T20:31:12.408Z,4.50
2019-02-17T20:33:40.935Z,4.53
2019-02-17T20:36:09.514Z,3.85
2019-02-17T20:38:38.018Z,4.75
2019-02-17T20:41:06.506Z,4.87
2019-02-17T20:43:35.090Z,4.85
2019-02-17T20:46:03.629Z,4.97
2019-02-17T20:48:32.227Z,4.92
2019-02-17T20:51:00.961Z,4.15
2019-02-17T20:53:29.550Z,4.67
2019-02-17T20:55:58.010Z,4.62
2019-02-17T20:58:26.509Z,3.85
2019-02-17T21:00:55.131Z,4.97
2019-02-17T21:03:23.647Z,4.85
2019-02-17T21:05:52.150Z,4.80
2019-02-17T21:08:20.718Z,4.70
2019-02-17T21:10:49.297Z,4.03
2019-02-17T21:13:17.767Z,4.60
2019-02-17T21:15:46.247Z,3.83
2019-02-17T21:18:14.693Z,5.00
2019-02-17T21:20:43.177Z,3.98
2019-02-17T21:23:11.697Z,4.75
2019-02-17T21:25:40.275Z,4.12
2019-02-17T21:28:08.835Z,5.83
2019-02-17T21:30:37.355Z,4.65
2019-02-17T21:33:05.830Z,4.08
2019-02-17T21:35:34.398Z,4.17
2019-02-17T21:38:02.965Z,3.72
2019-02-17T21:40:31.417Z,4.20
2019-02-17T21:42:59.898Z,4.08
2019-02-17T21:45:28.440Z,3.42
2019-02-17T21:47:56.929Z,4.25
2019-02-17T21:50:25.389Z,3.92
2019-02-17T21:52:53.918Z,4.53
2019-02-17T21:55:22.420Z,4.20
2019-02-17T21:57:50.890Z,4.20
2019-02-17T22:00:20.685Z,4.35
2019-02-17T22:02:49.299Z,3.45
2019-02-17T22:05:18.702Z,4.10
2019-02-17T22:07:47.397Z,3.55
2019-02-17T22:10:17.589Z,4.95
2019-02-17T22:12:46.228Z,4.40
2019-02-17T22:15:19.792Z,4.28
2019-02-17T22:17:48.364Z,4.12
2019-02-17T22:20:16.963Z,4.15
2019-02-17T22:22:45.545Z,4.25
2019-02-17T22:25:15.709Z,4.78
2019-02-17T22:27:44.243Z,4.37
2019-02-17T22:30:14.872Z,4.30
2019-02-17T22:32:43.463Z,4.00
2019-02-17T22:35:12.130Z,3.95
2019-02-17T22:37:40.718Z,4.00
2019-02-17T22:40:17.942Z,3.70
2019-02-17T22:42:46.515Z,4.30
2019-02-17T22:45:15.116Z,4.00
2019-02-17T22:47:43.698Z,3.50
2019-02-17T22:50:14.284Z,4.08
2019-02-17T22:52:44.073Z,3.40
2019-02-17T22:55:13.591Z,3.40
2019-02-17T22:57:42.231Z,3.22
2019-02-17T23:00:13.819Z,3.95
2019-02-17T23:02:42.358Z,3.85
2019-02-17T23:05:11.184Z,3.42
2019-02-17T23:07:39.832Z,3.25
2019-02-17T23:10:09.067Z,3.35
2019-02-17T23:12:37.629Z,3.35
2019-02-17T23:15:07.552Z,3.40
2019-02-17T23:17:36.130Z,3.15
2019-02-17T23:20:06.051Z,3.40
2019-02-17T23:22:34.634Z,3.85
2019-02-17T23:25:04.694Z,3.10
2019-02-17T23:27:33.306Z,3.58
2019-02-17T23:30:01.889Z,3.20
2019-02-17T23:32:30.357Z,3.30
2019-02-17T23:34:58.915Z,3.50
2019-02-17T23:37:27.419Z,3.10
2019-02-17T23:39:55.990Z,3.62
2019-02-17T23:42:24.672Z,3.27
2019-02-17T23:44:53.216Z,2.60
2019-02-17T23:47:21.796Z,2.95
2019-02-17T23:49:50.292Z,3.35
2019-02-17T23:52:18.933Z,3.00
2019-02-17T23:54:47.407Z,3.08
2019-02-17T23:57:15.929Z,3.33
2019-02-17T23:59:44.395Z,3.77
